sensor_id;sensor_type;location;lat;lon;timestamp;P1;durP1;ratioP1;P2;durP2;ratioP2
39584;SDS011;25278;53.674;10.014;2022-10-17T03:30:59;5.43;;;3.40;;
39584;SDS011;25278;53.674;10.014;2022-10-17T03:33:52;7.47;;;3.65;;
39584;SDS011;25278;53.674;10.014;2022-10-17T03:36:20;6.20;;;3.60;;
39584;SDS011;25278;53.674;10.014;2022-10-17T03:38:55;8.88;;;4.78;;
39584;SDS011;25278;53.674;10.014;2022-10-17T03:41:22;7.38;;;6.68;;
39584;SDS011;25278;53.674;10.014;2022-10-17T03:44:08;9.00;;;4.07;;
39584;SDS011;25278;53.674;10.014;2022-10-17T03:46:35;4.63;;;3.28;;
39584;SDS011;25278;53.674;10.014;2022-10-17T03:49:40;5.90;;;2.90;;
39584;SDS011;25278;53.674;10.014;2022-10-17T03:52:22;4.82;;;3.08;;
39584;SDS011;25278;53.674;10.014;2022-10-17T03:55:36;3.50;;;2.90;;
39584;SDS011;25278;53.674;10.014;2022-10-17T04:02:31;4.18;;;3.03;;
39584;SDS011;25278;53.674;10.014;2022-10-17T04:06:11;3.22;;;2.53;;
39584;SDS011;25278;53.674;10.014;2022-10-17T04:09:27;4.70;;;2.70;;
39584;SDS011;25278;53.674;10.014;2022-10-17T04:12:29;3.75;;;3.15;;
39584;SDS011;25278;53.674;10.014;2022-10-17T04:15:21;6.82;;;2.85;;
39584;SDS011;25278;53.674;10.014;2022-10-17T04:18:11;8.13;;;3.10;;
39584;SDS011;25278;53.674;10.014;2022-10-17T04:20:49;4.18;;;3.38;;
39584;SDS011;25278;53.674;10.014;2022-10-17T04:23:14;6.85;;;3.35;;
39584;SDS011;25278;53.674;10.014;2022-10-17T04:25:40;4.25;;;3.25;;
39584;SDS011;25278;53.674;10.014;2022-10-17T04:28:05;7.07;;;3.33;;
39584;SDS011;25278;53.674;10.014;2022-10-17T04:30:31;3.75;;;2.58;;
39584;SDS011;25278;53.674;10.014;2022-10-17T04:32:57;3.38;;;2.63;;
39584;SDS011;25278;53.674;10.014;2022-10-17T04:35:22;11.85;;;2.95;;
39584;SDS011;25278;53.674;10.014;2022-10-17T04:37:48;4.47;;;2.72;;
39584;SDS011;25278;53.674;10.014;2022-10-17T04:40:13;6.13;;;3.10;;
39584;SDS011;25278;53.674;10.014;2022-10-17T04:42:39;5.03;;;2.70;;
39584;SDS011;25278;53.674;10.014;2022-10-17T04:45:05;6.05;;;3.20;;
39584;SDS011;25278;53.674;10.014;2022-10-17T04:47:31;3.70;;;2.90;;
39584;SDS011;25278;53.674;10.014;2022-10-17T04:49:57;4.75;;;3.10;;
39584;SDS011;25278;53.674;10.014;2022-10-17T04:52:22;4.38;;;3.10;;
39584;SDS011;25278;53.674;10.014;2022-10-17T04:54:49;7.20;;;3.33;;
39584;SDS011;25278;53.674;10.014;2022-10-17T04:57:14;4.28;;;3.40;;
39584;SDS011;25278;53.674;10.014;2022-10-17T04:59:40;6.72;;;3.45;;
39584;SDS011;25278;53.674;10.014;2022-10-17T05:02:05;5.25;;;3.15;;
39584;SDS011;25278;53.674;10.014;2022-10-17T05:04:31;6.05;;;3.42;;
39584;SDS011;25278;53.674;10.014;2022-10-17T05:06:57;3.42;;;3.13;;
39584;SDS011;25278;53.674;10.014;2022-10-17T05:09:22;4.80;;;3.30;;
39584;SDS011;25278;53.674;10.014;2022-10-17T05:11:48;6.10;;;3.15;;
39584;SDS011;25278;53.674;10.014;2022-10-17T05:14:13;5.68;;;3.35;;
39584;SDS011;25278;53.674;10.014;2022-10-17T05:16:39;6.30;;;3.75;;
39584;SDS011;25278;53.674;10.014;2022-10-17T05:19:05;8.55;;;4.00;;
39584;SDS011;25278;53.674;10.014;2022-10-17T05:21:31;4.70;;;3.53;;
39584;SDS011;25278;53.674;10.014;2022-10-17T05:23:56;7.47;;;3.35;;
39584;SDS011;25278;53.674;10.014;2022-10-17T05:26:22;3.80;;;3.40;;
39584;SDS011;25278;53.674;10.014;2022-10-17T05:28:48;4.35;;;3.75;;
39584;SDS011;25278;53.674;10.014;2022-10-17T05:31:16;10.00;;;4.05;;
39584;SDS011;25278;53.674;10.014;2022-10-17T05:33:41;8.50;;;3.85;;
39584;SDS011;25278;53.674;10.014;2022-10-17T05:36:07;8.02;;;5.10;;
39584;SDS011;25278;53.674;10.014;2022-10-17T05:38:36;6.27;;;3.90;;
39584;SDS011;25278;53.674;10.014;2022-10-17T05:41:03;7.70;;;4.30;;
39584;SDS011;25278;53.674;10.014;2022-10-17T05:43:29;7.10;;;3.95;;
39584;SDS011;25278;53.674;10.014;2022-10-17T05:45:56;4.75;;;3.95;;
39584;SDS011;25278;53.674;10.014;2022-10-17T05:48:22;5.10;;;3.45;;
39584;SDS011;25278;53.674;10.014;2022-10-17T05:50:48;4.60;;;3.80;;
39584;SDS011;25278;53.674;10.014;2022-10-17T05:53:21;6.30;;;4.03;;
39584;SDS011;25278;53.674;10.014;2022-10-17T05:55:53;5.65;;;4.22;;
39584;SDS011;25278;53.674;10.014;2022-10-17T05:58:26;8.45;;;3.60;;
39584;SDS011;25278;53.674;10.014;2022-10-17T06:00:59;6.57;;;3.67;;
39584;SDS011;25278;53.674;10.014;2022-10-17T06:03:27;5.10;;;3.90;;
39584;SDS011;25278;53.674;10.014;2022-10-17T06:05:55;6.53;;;4.45;;
39584;SDS011;25278;53.674;10.014;2022-10-17T06:08:21;5.53;;;4.63;;
39584;SDS011;25278;53.674;10.014;2022-10-17T06:10:47;6.72;;;4.30;;
39584;SDS011;25278;53.674;10.014;2022-10-17T06:13:15;6.18;;;4.68;;
39584;SDS011;25278;53.674;10.014;2022-10-17T06:15:47;7.30;;;4.63;;
39584;SDS011;25278;53.674;10.014;2022-10-17T06:18:13;17.35;;;12.45;;
39584;SDS011;25278;53.674;10.014;2022-10-17T06:20:38;9.35;;;4.90;;
39584;SDS011;25278;53.674;10.014;2022-10-17T06:23:04;6.32;;;4.38;;
39584;SDS011;25278;53.674;10.014;2022-10-17T06:25:32;7.95;;;4.40;;
39584;SDS011;25278;53.674;10.014;2022-10-17T06:27:58;8.85;;;4.75;;
39584;SDS011;25278;53.674;10.014;2022-10-17T06:30:24;7.95;;;4.75;;
39584;SDS011;25278;53.674;10.014;2022-10-17T06:35:55;5.13;;;3.90;;
39584;SDS011;25278;53.674;10.014;2022-10-17T06:38:27;4.43;;;4.03;;
39584;SDS011;25278;53.674;10.014;2022-10-17T06:40:53;8.20;;;3.88;;
39584;SDS011;25278;53.674;10.014;2022-10-17T06:43:21;8.57;;;6.30;;
39584;SDS011;25278;53.674;10.014;2022-10-17T06:45:49;7.35;;;4.97;;
39584;SDS011;25278;53.674;10.014;2022-10-17T06:48:14;4.80;;;3.80;;
39584;SDS011;25278;53.674;10.014;2022-10-17T06:50:40;8.75;;;4.65;;
39584;SDS011;25278;53.674;10.014;2022-10-17T06:53:06;4.85;;;4.40;;
39584;SDS011;25278;53.674;10.014;2022-10-17T06:55:39;22.27;;;15.82;;
39584;SDS011;25278;53.674;10.014;2022-10-17T06:58:09;5.70;;;3.92;;
39584;SDS011;25278;53.674;10.014;2022-10-17T07:00:59;5.07;;;3.13;;
39584;SDS011;25278;53.674;10.014;2022-10-17T07:03:26;8.35;;;3.72;;
39584;SDS011;25278;53.674;10.014;2022-10-17T07:05:52;6.57;;;3.28;;
39584;SDS011;25278;53.674;10.014;2022-10-17T07:08:18;5.03;;;2.67;;
39584;SDS011;25278;53.674;10.014;2022-10-17T07:10:44;3.97;;;2.97;;
39584;SDS011;25278;53.674;10.014;2022-10-17T07:13:09;3.38;;;2.58;;
39584;SDS011;25278;53.674;10.014;2022-10-17T07:15:36;3.70;;;2.88;;
39584;SDS011;25278;53.674;10.014;2022-10-17T07:18:02;7.80;;;3.38;;
39584;SDS011;25278;53.674;10.014;2022-10-17T07:20:27;4.05;;;3.35;;
39584;SDS011;25278;53.674;10.014;2022-10-17T07:22:53;5.20;;;3.30;;
39584;SDS011;25278;53.674;10.014;2022-10-17T07:25:19;8.07;;;2.88;;
39584;SDS011;25278;53.674;10.014;2022-10-17T07:27:47;3.40;;;2.88;;
39584;SDS011;25278;53.674;10.014;2022-10-17T07:30:12;5.25;;;4.70;;
39584;SDS011;25278;53.674;10.014;2022-10-17T07:32:38;7.93;;;4.25;;
39584;SDS011;25278;53.674;10.014;2022-10-17T07:35:04;5.45;;;3.63;;
39584;SDS011;25278;53.674;10.014;2022-10-17T07:37:30;4.78;;;3.67;;
39584;SDS011;25278;53.674;10.014;2022-10-17T07:39:57;5.05;;;2.80;;
39584;SDS011;25278;53.674;10.014;2022-10-17T07:42:23;5.40;;;2.78;;
39584;SDS011;25278;53.674;10.014;2022-10-17T07:44:49;3.15;;;2.42;;
39584;SDS011;25278;53.674;10.014;2022-10-17T07:47:15;7.30;;;2.85;;
39584;SDS011;25278;53.674;10.014;2022-10-17T07:49:41;3.80;;;2.70;;
39584;SDS011;25278;53.674;10.014;2022-10-17T07:52:09;5.95;;;3.10;;
39584;SDS011;25278;53.674;10.014;2022-10-17T07:54:35;3.45;;;3.15;;
39584;SDS011;25278;53.674;10.014;2022-10-17T07:57:01;5.72;;;2.55;;
39584;SDS011;25278;53.674;10.014;2022-10-17T07:59:27;6.55;;;2.83;;
39584;SDS011;25278;53.674;10.014;2022-10-17T08:01:56;6.40;;;2.80;;
39584;SDS011;25278;53.674;10.014;2022-10-17T08:06:49;4.38;;;2.42;;
39584;SDS011;25278;53.674;10.014;2022-10-17T08:09:15;3.97;;;2.35;;
39584;SDS011;25278;53.674;10.014;2022-10-17T08:11:41;4.55;;;2.45;;
39584;SDS011;25278;53.674;10.014;2022-10-17T08:14:08;3.47;;;2.65;;
39584;SDS011;25278;53.674;10.014;2022-10-17T08:16:34;7.38;;;3.90;;
39584;SDS011;25278;53.674;10.014;2022-10-17T08:19:00;4.28;;;2.50;;
39584;SDS011;25278;53.674;10.014;2022-10-17T08:21:26;7.10;;;3.25;;
39584;SDS011;25278;53.674;10.014;2022-10-17T08:23:52;4.10;;;2.47;;
39584;SDS011;25278;53.674;10.014;2022-10-17T08:26:18;5.38;;;2.78;;
39584;SDS011;25278;53.674;10.014;2022-10-17T08:28:45;8.15;;;2.83;;
39584;SDS011;25278;53.674;10.014;2022-10-17T08:31:12;6.43;;;2.90;;
39584;SDS011;25278;53.674;10.014;2022-10-17T08:33:39;3.83;;;2.95;;
39584;SDS011;25278;53.674;10.014;2022-10-17T08:36:05;10.80;;;3.88;;
39584;SDS011;25278;53.674;10.014;2022-10-17T08:38:31;6.43;;;3.00;;
39584;SDS011;25278;53.674;10.014;2022-10-17T08:41:29;4.60;;;2.63;;
39584;SDS011;25278;53.674;10.014;2022-10-17T08:43:47;5.40;;;2.65;;
39584;SDS011;25278;53.674;10.014;2022-10-17T08:46:15;6.97;;;2.50;;
39584;SDS011;25278;53.674;10.014;2022-10-17T08:48:42;4.43;;;2.47;;
39584;SDS011;25278;53.674;10.014;2022-10-17T08:53:38;4.80;;;2.85;;
39584;SDS011;25278;53.674;10.014;2022-10-17T08:56:16;4.30;;;2.90;;
39584;SDS011;25278;53.674;10.014;2022-10-17T08:58:50;5.13;;;3.05;;
39584;SDS011;25278;53.674;10.014;2022-10-17T09:06:26;8.82;;;2.40;;
39584;SDS011;25278;53.674;10.014;2022-10-17T09:17:11;6.28;;;2.50;;
39584;SDS011;25278;53.674;10.014;2022-10-17T09:20:02;10.63;;;3.22;;
39584;SDS011;25278;53.674;10.014;2022-10-17T09:22:56;5.47;;;2.80;;
39584;SDS011;25278;53.674;10.014;2022-10-17T09:25:41;5.78;;;3.15;;
39584;SDS011;25278;53.674;10.014;2022-10-17T09:28:14;9.23;;;2.85;;
39584;SDS011;25278;53.674;10.014;2022-10-17T09:30:46;8.13;;;2.95;;
39584;SDS011;25278;53.674;10.014;2022-10-17T09:33:19;7.20;;;3.10;;
39584;SDS011;25278;53.674;10.014;2022-10-17T09:35:49;8.48;;;3.80;;
39584;SDS011;25278;53.674;10.014;2022-10-17T09:38:16;4.78;;;3.00;;
39584;SDS011;25278;53.674;10.014;2022-10-17T09:40:44;5.32;;;2.80;;
39584;SDS011;25278;53.674;10.014;2022-10-17T09:43:14;3.58;;;2.70;;
39584;SDS011;25278;53.674;10.014;2022-10-17T09:45:42;6.55;;;2.95;;
39584;SDS011;25278;53.674;10.014;2022-10-17T09:48:25;6.60;;;2.80;;
39584;SDS011;25278;53.674;10.014;2022-10-17T09:51:01;8.70;;;3.13;;
39584;SDS011;25278;53.674;10.014;2022-10-17T09:53:56;6.13;;;2.95;;
39584;SDS011;25278;53.674;10.014;2022-10-17T09:56:24;8.52;;;3.28;;
39584;SDS011;25278;53.674;10.014;2022-10-17T09:58:52;8.80;;;3.05;;
39584;SDS011;25278;53.674;10.014;2022-10-17T10:01:22;4.60;;;2.53;;
39584;SDS011;25278;53.674;10.014;2022-10-17T10:04:14;6.18;;;2.60;;
39584;SDS011;25278;53.674;10.014;2022-10-17T10:06:40;5.05;;;2.90;;
39584;SDS011;25278;53.674;10.014;2022-10-17T10:09:26;5.07;;;2.78;;
39584;SDS011;25278;53.674;10.014;2022-10-17T10:11:54;6.45;;;2.63;;
39584;SDS011;25278;53.674;10.014;2022-10-17T10:14:22;8.63;;;2.60;;
39584;SDS011;25278;53.674;10.014;2022-10-17T10:16:49;4.70;;;2.60;;
39584;SDS011;25278;53.674;10.014;2022-10-17T10:19:36;8.43;;;5.97;;
39584;SDS011;25278;53.674;10.014;2022-10-17T10:22:15;6.20;;;3.17;;
39584;SDS011;25278;53.674;10.014;2022-10-17T10:24:42;5.20;;;2.63;;
39584;SDS011;25278;53.674;10.014;2022-10-17T10:27:12;6.95;;;2.60;;
39584;SDS011;25278;53.674;10.014;2022-10-17T10:29:40;5.85;;;2.85;;
39584;SDS011;25278;53.674;10.014;2022-10-17T10:34:36;4.07;;;2.83;;
39584;SDS011;25278;53.674;10.014;2022-10-17T10:37:04;4.53;;;2.45;;
39584;SDS011;25278;53.674;10.014;2022-10-17T10:42:00;7.13;;;3.15;;
39584;SDS011;25278;53.674;10.014;2022-10-17T10:44:36;3.90;;;2.70;;
39584;SDS011;25278;53.674;10.014;2022-10-17T10:47:17;6.10;;;3.28;;
39584;SDS011;25278;53.674;10.014;2022-10-17T10:49:44;9.43;;;3.38;;
39584;SDS011;25278;53.674;10.014;2022-10-17T10:52:14;7.78;;;3.22;;
39584;SDS011;25278;53.674;10.014;2022-10-17T10:54:45;5.50;;;3.30;;
39584;SDS011;25278;53.674;10.014;2022-10-17T10:57:24;4.28;;;2.80;;
39584;SDS011;25278;53.674;10.014;2022-10-17T11:02:42;7.45;;;3.20;;
39584;SDS011;25278;53.674;10.014;2022-10-17T11:05:33;6.80;;;3.78;;
39584;SDS011;25278;53.674;10.014;2022-10-17T11:10:54;5.90;;;3.50;;
39584;SDS011;25278;53.674;10.014;2022-10-17T11:13:50;5.50;;;3.15;;
39584;SDS011;25278;53.674;10.014;2022-10-17T11:19:10;9.50;;;4.22;;
39584;SDS011;25278;53.674;10.014;2022-10-17T11:24:45;7.70;;;3.90;;
39584;SDS011;25278;53.674;10.014;2022-10-17T11:27:24;7.35;;;4.07;;
39584;SDS011;25278;53.674;10.014;2022-10-17T11:29:52;9.37;;;4.50;;
39584;SDS011;25278;53.674;10.014;2022-10-17T11:32:37;8.23;;;3.92;;
39584;SDS011;25278;53.674;10.014;2022-10-17T11:35:28;9.05;;;4.28;;
39584;SDS011;25278;53.674;10.014;2022-10-17T11:40:41;11.75;;;5.07;;
39584;SDS011;25278;53.674;10.014;2022-10-17T11:45:46;15.63;;;4.18;;
39584;SDS011;25278;53.674;10.014;2022-10-17T11:48:17;7.35;;;4.13;;
39584;SDS011;25278;53.674;10.014;2022-10-17T11:50:50;9.02;;;4.45;;
39584;SDS011;25278;53.674;10.014;2022-10-17T11:56:40;8.88;;;5.15;;
39584;SDS011;25278;53.674;10.014;2022-10-17T12:02:20;8.48;;;3.38;;
39584;SDS011;25278;53.674;10.014;2022-10-17T12:05:21;8.00;;;3.72;;
39584;SDS011;25278;53.674;10.014;2022-10-17T12:10:24;4.72;;;3.30;;
39584;SDS011;25278;53.674;10.014;2022-10-17T12:15:46;8.13;;;5.57;;
39584;SDS011;25278;53.674;10.014;2022-10-17T12:18:15;7.18;;;4.40;;
39584;SDS011;25278;53.674;10.014;2022-10-17T12:20:41;9.18;;;4.57;;
39584;SDS011;25278;53.674;10.014;2022-10-17T12:25:58;10.15;;;4.97;;
39584;SDS011;25278;53.674;10.014;2022-10-17T12:33:57;10.30;;;6.22;;
39584;SDS011;25278;53.674;10.014;2022-10-17T12:46:48;12.63;;;8.95;;
39584;SDS011;25278;53.674;10.014;2022-10-17T12:58:02;8.88;;;7.97;;
39584;SDS011;25278;53.674;10.014;2022-10-17T13:03:17;10.93;;;8.63;;
39584;SDS011;25278;53.674;10.014;2022-10-17T13:05:57;18.98;;;10.73;;
39584;SDS011;25278;53.674;10.014;2022-10-17T13:08:35;12.82;;;10.45;;
39584;SDS011;25278;53.674;10.014;2022-10-17T13:11:04;18.02;;;10.38;;
39584;SDS011;25278;53.674;10.014;2022-10-17T13:19:25;14.10;;;9.82;;
39584;SDS011;25278;53.674;10.014;2022-10-17T13:24:33;11.68;;;9.10;;
39584;SDS011;25278;53.674;10.014;2022-10-17T13:27:01;16.50;;;10.38;;
39584;SDS011;25278;53.674;10.014;2022-10-17T13:29:29;11.25;;;9.60;;
39584;SDS011;25278;53.674;10.014;2022-10-17T13:32:01;12.32;;;9.80;;
39584;SDS011;25278;53.674;10.014;2022-10-17T13:34:42;16.15;;;10.30;;
39584;SDS011;25278;53.674;10.014;2022-10-17T13:37:12;12.93;;;9.93;;
39584;SDS011;25278;53.674;10.014;2022-10-17T13:39:42;12.88;;;10.10;;
39584;SDS011;25278;53.674;10.014;2022-10-17T13:42:21;13.05;;;10.50;;
39584;SDS011;25278;53.674;10.014;2022-10-17T13:45:23;13.75;;;10.40;;
39584;SDS011;25278;53.674;10.014;2022-10-17T13:51:49;12.65;;;10.63;;
39584;SDS011;25278;53.674;10.014;2022-10-17T13:54:34;12.55;;;10.45;;
39584;SDS011;25278;53.674;10.014;2022-10-17T13:59:52;12.45;;;11.18;;
39584;SDS011;25278;53.674;10.014;2022-10-17T14:02:22;12.98;;;11.35;;
39584;SDS011;25278;53.674;10.014;2022-10-17T14:05:10;16.25;;;11.60;;
39584;SDS011;25278;53.674;10.014;2022-10-17T14:07:41;15.82;;;12.75;;
39584;SDS011;25278;53.674;10.014;2022-10-17T14:10:18;19.17;;;13.05;;
39584;SDS011;25278;53.674;10.014;2022-10-17T14:12:49;18.83;;;12.65;;
39584;SDS011;25278;53.674;10.014;2022-10-17T14:15:25;15.83;;;12.63;;
39584;SDS011;25278;53.674;10.014;2022-10-17T14:17:56;15.77;;;12.18;;
39584;SDS011;25278;53.674;10.014;2022-10-17T14:20:27;19.90;;;12.88;;
39584;SDS011;25278;53.674;10.014;2022-10-17T14:22:53;18.27;;;13.18;;
39584;SDS011;25278;53.674;10.014;2022-10-17T14:25:33;15.55;;;13.10;;
39584;SDS011;25278;53.674;10.014;2022-10-17T14:28:07;16.23;;;14.65;;
39584;SDS011;25278;53.674;10.014;2022-10-17T14:33:04;16.02;;;13.82;;
39584;SDS011;25278;53.674;10.014;2022-10-17T14:35:32;17.77;;;14.55;;
39584;SDS011;25278;53.674;10.014;2022-10-17T14:38:03;19.30;;;14.60;;
39584;SDS011;25278;53.674;10.014;2022-10-17T14:40:30;17.55;;;13.48;;
39584;SDS011;25278;53.674;10.014;2022-10-17T14:43:01;16.50;;;13.68;;
39584;SDS011;25278;53.674;10.014;2022-10-17T14:45:30;18.38;;;14.18;;
39584;SDS011;25278;53.674;10.014;2022-10-17T14:48:16;16.70;;;13.50;;
39584;SDS011;25278;53.674;10.014;2022-10-17T14:53:41;18.65;;;12.98;;
39584;SDS011;25278;53.674;10.014;2022-10-17T14:56:22;18.40;;;13.20;;
39584;SDS011;25278;53.674;10.014;2022-10-17T14:58:49;15.13;;;13.52;;
39584;SDS011;25278;53.674;10.014;2022-10-17T15:01:16;14.80;;;13.30;;
39584;SDS011;25278;53.674;10.014;2022-10-17T15:03:42;19.83;;;14.38;;
39584;SDS011;25278;53.674;10.014;2022-10-17T15:06:17;15.98;;;14.40;;
39584;SDS011;25278;53.674;10.014;2022-10-17T15:08:54;19.45;;;16.38;;
39584;SDS011;25278;53.674;10.014;2022-10-17T15:11:20;18.20;;;15.20;;
39584;SDS011;25278;53.674;10.014;2022-10-17T15:13:45;17.85;;;14.98;;
39584;SDS011;25278;53.674;10.014;2022-10-17T15:16:21;17.38;;;15.68;;
39584;SDS011;25278;53.674;10.014;2022-10-17T15:18:54;17.92;;;16.10;;
39584;SDS011;25278;53.674;10.014;2022-10-17T15:21:21;20.65;;;16.90;;
39584;SDS011;25278;53.674;10.014;2022-10-17T15:23:48;17.77;;;16.05;;
39584;SDS011;25278;53.674;10.014;2022-10-17T15:28:44;22.00;;;18.30;;
39584;SDS011;25278;53.674;10.014;2022-10-17T15:31:12;19.67;;;17.45;;
39584;SDS011;25278;53.674;10.014;2022-10-17T15:33:39;22.85;;;18.70;;
39584;SDS011;25278;53.674;10.014;2022-10-17T15:36:15;23.45;;;17.95;;
39584;SDS011;25278;53.674;10.014;2022-10-17T15:38:55;20.35;;;18.02;;
39584;SDS011;25278;53.674;10.014;2022-10-17T15:41:23;23.20;;;18.85;;
39584;SDS011;25278;53.674;10.014;2022-10-17T15:43:50;21.85;;;19.52;;
39584;SDS011;25278;53.674;10.014;2022-10-17T15:46:18;22.92;;;19.83;;
39584;SDS011;25278;53.674;10.014;2022-10-17T15:48:46;21.70;;;19.52;;
39584;SDS011;25278;53.674;10.014;2022-10-17T15:51:12;21.60;;;19.20;;
39584;SDS011;25278;53.674;10.014;2022-10-17T15:53:38;24.02;;;20.05;;
39584;SDS011;25278;53.674;10.014;2022-10-17T15:56:04;22.70;;;20.50;;
39584;SDS011;25278;53.674;10.014;2022-10-17T15:58:34;22.60;;;20.17;;
39584;SDS011;25278;53.674;10.014;2022-10-17T16:01:02;20.17;;;18.30;;
39584;SDS011;25278;53.674;10.014;2022-10-17T16:04:19;22.88;;;20.25;;
39584;SDS011;25278;53.674;10.014;2022-10-17T16:10:05;27.67;;;22.05;;
39584;SDS011;25278;53.674;10.014;2022-10-17T16:13:26;23.10;;;20.38;;
39584;SDS011;25278;53.674;10.014;2022-10-17T16:23:02;21.92;;;19.67;;
39584;SDS011;25278;53.674;10.014;2022-10-17T16:26:44;24.67;;;20.33;;
39584;SDS011;25278;53.674;10.014;2022-10-17T16:30:04;30.35;;;22.67;;
39584;SDS011;25278;53.674;10.014;2022-10-17T16:33:10;25.73;;;23.00;;
39584;SDS011;25278;53.674;10.014;2022-10-17T16:35:57;49.95;;;28.85;;
39584;SDS011;25278;53.674;10.014;2022-10-17T16:38:26;22.08;;;20.00;;
39584;SDS011;25278;53.674;10.014;2022-10-17T16:41:25;29.55;;;22.23;;
39584;SDS011;25278;53.674;10.014;2022-10-17T16:47:29;58.72;;;33.92;;
39584;SDS011;25278;53.674;10.014;2022-10-17T16:50:14;22.63;;;20.37;;
39584;SDS011;25278;53.674;10.014;2022-10-17T16:52:59;23.05;;;20.67;;
39584;SDS011;25278;53.674;10.014;2022-10-17T16:55:35;21.38;;;19.27;;
39584;SDS011;25278;53.674;10.014;2022-10-17T16:58:04;21.02;;;19.13;;
39584;SDS011;25278;53.674;10.014;2022-10-17T17:00:30;22.33;;;19.70;;
39584;SDS011;25278;53.674;10.014;2022-10-17T17:02:56;21.88;;;19.33;;
39584;SDS011;25278;53.674;10.014;2022-10-17T17:05:29;23.47;;;20.50;;
39584;SDS011;25278;53.674;10.014;2022-10-17T17:08:36;22.73;;;20.52;;
39584;SDS011;25278;53.674;10.014;2022-10-17T17:12:11;25.65;;;20.10;;
39584;SDS011;25278;53.674;10.014;2022-10-17T17:14:42;23.23;;;20.77;;
39584;SDS011;25278;53.674;10.014;2022-10-17T17:17:23;23.30;;;20.90;;
39584;SDS011;25278;53.674;10.014;2022-10-17T17:19:51;26.38;;;23.02;;
39584;SDS011;25278;53.674;10.014;2022-10-17T17:22:19;29.52;;;23.75;;
39584;SDS011;25278;53.674;10.014;2022-10-17T17:24:46;24.58;;;21.95;;
39584;SDS011;25278;53.674;10.014;2022-10-17T17:27:13;22.98;;;20.77;;
39584;SDS011;25278;53.674;10.014;2022-10-17T17:29:43;24.92;;;20.95;;
39584;SDS011;25278;53.674;10.014;2022-10-17T17:36:06;23.17;;;20.77;;
39584;SDS011;25278;53.674;10.014;2022-10-17T17:38:35;20.83;;;18.55;;
39584;SDS011;25278;53.674;10.014;2022-10-17T17:41:21;19.13;;;17.27;;
39584;SDS011;25278;53.674;10.014;2022-10-17T17:44:34;20.40;;;18.38;;
39584;SDS011;25278;53.674;10.014;2022-10-17T17:47:05;20.98;;;18.88;;
39584;SDS011;25278;53.674;10.014;2022-10-17T17:56:05;19.95;;;17.52;;
39584;SDS011;25278;53.674;10.014;2022-10-17T17:59:08;17.88;;;15.93;;
39584;SDS011;25278;53.674;10.014;2022-10-17T18:02:01;19.52;;;17.52;;
39584;SDS011;25278;53.674;10.014;2022-10-17T18:04:41;20.75;;;18.38;;
39584;SDS011;25278;53.674;10.014;2022-10-17T18:08:17;20.13;;;18.10;;
39584;SDS011;25278;53.674;10.014;2022-10-17T18:11:21;20.20;;;18.13;;
39584;SDS011;25278;53.674;10.014;2022-10-17T18:20:21;22.55;;;20.15;;
39584;SDS011;25278;53.674;10.014;2022-10-17T18:23:24;23.00;;;20.15;;
39584;SDS011;25278;53.674;10.014;2022-10-17T18:26:20;22.48;;;20.08;;
39584;SDS011;25278;53.674;10.014;2022-10-17T18:33:16;21.95;;;19.73;;
39584;SDS011;25278;53.674;10.014;2022-10-17T18:35:42;21.25;;;19.23;;
39584;SDS011;25278;53.674;10.014;2022-10-17T18:42:32;23.27;;;20.98;;
39584;SDS011;25278;53.674;10.014;2022-10-17T18:46:08;23.92;;;21.55;;
39584;SDS011;25278;53.674;10.014;2022-10-17T18:49:56;15.40;;;13.90;;
39584;SDS011;25278;53.674;10.014;2022-10-17T18:53:03;10.00;;;9.00;;
39584;SDS011;25278;53.674;10.014;2022-10-17T18:55:45;9.02;;;8.23;;
39584;SDS011;25278;53.674;10.014;2022-10-17T18:59:07;7.93;;;7.22;;
39584;SDS011;25278;53.674;10.014;2022-10-17T19:05:37;5.00;;;4.50;;
39584;SDS011;25278;53.674;10.014;2022-10-17T19:11:58;4.63;;;4.22;;
39584;SDS011;25278;53.674;10.014;2022-10-17T19:25:23;6.10;;;4.25;;
39584;SDS011;25278;53.674;10.014;2022-10-17T19:53:06;5.70;;;4.30;;
39584;SDS011;25278;53.674;10.014;2022-10-17T19:56:08;6.93;;;4.97;;
39584;SDS011;25278;53.674;10.014;2022-10-17T19:59:42;5.32;;;4.65;;
39584;SDS011;25278;53.674;10.014;2022-10-17T20:03:02;6.20;;;3.70;;
39584;SDS011;25278;53.674;10.014;2022-10-17T20:05:31;5.35;;;4.03;;
39584;SDS011;25278;53.674;10.014;2022-10-17T20:11:44;6.40;;;3.80;;
39584;SDS011;25278;53.674;10.014;2022-10-17T20:14:48;6.57;;;4.03;;
39584;SDS011;25278;53.674;10.014;2022-10-17T20:17:14;4.65;;;3.53;;
39584;SDS011;25278;53.674;10.014;2022-10-17T20:23:12;5.80;;;4.28;;
39584;SDS011;25278;53.674;10.014;2022-10-17T20:25:41;4.00;;;3.58;;
39584;SDS011;25278;53.674;10.014;2022-10-17T20:29:11;4.30;;;3.45;;
39584;SDS011;25278;53.674;10.014;2022-10-17T20:32:26;4.15;;;3.72;;
39584;SDS011;25278;53.674;10.014;2022-10-17T20:35:05;4.85;;;3.47;;
39584;SDS011;25278;53.674;10.014;2022-10-17T20:37:37;4.65;;;3.92;;
39584;SDS011;25278;53.674;10.014;2022-10-17T20:40:13;4.70;;;3.83;;
39584;SDS011;25278;53.674;10.014;2022-10-17T20:42:48;9.30;;;4.63;;
39584;SDS011;25278;53.674;10.014;2022-10-17T20:45:28;7.60;;;4.68;;
39584;SDS011;25278;53.674;10.014;2022-10-17T20:47:56;6.40;;;4.70;;
39584;SDS011;25278;53.674;10.014;2022-10-17T20:50:26;5.43;;;4.75;;
39584;SDS011;25278;53.674;10.014;2022-10-17T20:53:23;7.68;;;5.50;;
39584;SDS011;25278;53.674;10.014;2022-10-17T20:59:37;10.85;;;5.32;;
39584;SDS011;25278;53.674;10.014;2022-10-17T21:02:03;7.63;;;5.35;;
39584;SDS011;25278;53.674;10.014;2022-10-17T21:04:29;6.80;;;5.40;;
39584;SDS011;25278;53.674;10.014;2022-10-17T21:06:58;6.70;;;5.45;;
39584;SDS011;25278;53.674;10.014;2022-10-17T21:10:18;6.47;;;5.70;;
39584;SDS011;25278;53.674;10.014;2022-10-17T21:12:46;6.20;;;5.38;;
39584;SDS011;25278;53.674;10.014;2022-10-17T21:15:12;7.07;;;5.65;;
39584;SDS011;25278;53.674;10.014;2022-10-17T21:17:43;6.68;;;5.50;;
39584;SDS011;25278;53.674;10.014;2022-10-17T21:20:12;7.55;;;5.63;;
39584;SDS011;25278;53.674;10.014;2022-10-17T21:23:07;6.78;;;5.63;;
39584;SDS011;25278;53.674;10.014;2022-10-17T21:25:32;10.35;;;6.07;;
39584;SDS011;25278;53.674;10.014;2022-10-17T21:28:01;7.07;;;5.35;;
39584;SDS011;25278;53.674;10.014;2022-10-17T21:30:26;10.75;;;4.97;;
39584;SDS011;25278;53.674;10.014;2022-10-17T21:32:52;8.10;;;5.00;;
39584;SDS011;25278;53.674;10.014;2022-10-17T21:35:27;8.00;;;4.95;;
39584;SDS011;25278;53.674;10.014;2022-10-17T21:37:52;5.70;;;5.07;;
39584;SDS011;25278;53.674;10.014;2022-10-17T21:40:23;6.15;;;5.53;;
39584;SDS011;25278;53.674;10.014;2022-10-17T21:42:51;9.32;;;5.70;;
39584;SDS011;25278;53.674;10.014;2022-10-17T21:45:26;7.88;;;6.05;;
39584;SDS011;25278;53.674;10.014;2022-10-17T21:48:05;9.95;;;5.57;;
39584;SDS011;25278;53.674;10.014;2022-10-17T21:50:31;6.32;;;5.10;;
39584;SDS011;25278;53.674;10.014;2022-10-17T21:52:56;7.95;;;5.57;;
39584;SDS011;25278;53.674;10.014;2022-10-17T21:55:22;5.80;;;5.18;;
39584;SDS011;25278;53.674;10.014;2022-10-17T21:57:48;7.30;;;6.05;;
39584;SDS011;25278;53.674;10.014;2022-10-17T22:00:15;8.80;;;6.28;;
39584;SDS011;25278;53.674;10.014;2022-10-17T22:02:41;7.43;;;6.30;;
39584;SDS011;25278;53.674;10.014;2022-10-17T22:08:12;9.35;;;6.80;;
39584;SDS011;25278;53.674;10.014;2022-10-17T22:10:38;8.32;;;7.07;;